Time;durP1;ratioP1;P1;durP2;ratioP2;P2;SDS_P1;SDS_P2;PMS_P1;PMS_P2;Temp;Humidity;BMP_temperature;BMP_pressure;BME280_temperature;BME280_humidity;BME280_pressure;Samples;Min_cycle;Max_cycle;Signal;HPM_P1;HPM_P2
2022/09/05 00:00:07;;;;;;;5.78;5.30;;;18.30;99.90;;;;;;5102076;28;20200;-94
2022/09/05 00:02:52;;;;;;;5.53;5.13;;;18.20;99.90;;;;;;5099898;28;20216;-94
2022/09/05 00:05:49;;;;;;;4.30;4.00;;;18.20;99.90;;;;;;5096495;28;20264;-94
2022/09/05 00:08:42;;;;;;;5.25;4.85;;;18.10;99.90;;;;;;5095642;28;20201;-93
2022/09/05 00:11:18;;;;;;;5.57;5.07;;;18.10;99.90;;;;;;5095919;28;20307;-93
2022/09/05 00:14:23;;;;;;;5.38;4.90;;;18.10;99.90;;;;;;5095731;28;20201;-93
2022/09/05 00:17:24;;;;;;;5.40;4.90;;;18.10;99.90;;;;;;5095927;28;20196;-93
2022/09/05 00:20:23;;;;;;;5.82;5.32;;;18.10;99.90;;;;;;5095438;28;20230;-93
2022/09/05 00:23:19;;;;;;;5.40;4.90;;;18.00;99.90;;;;;;5095602;28;20207;-95
2022/09/05 00:26:23;;;;;;;7.95;5.38;;;17.90;99.90;;;;;;5095273;28;20201;-93
2022/09/05 00:29:05;;;;;;;6.47;5.88;;;18.00;99.90;;;;;;5095256;28;20234;-95
2022/09/05 00:31:49;;;;;;;6.78;5.60;;;17.90;99.90;;;;;;5095232;28;20247;-93
2022/09/05 00:34:40;;;;;;;6.72;6.03;;;17.90;99.90;;;;;;5095643;28;20269;-93
2022/09/05 00:37:27;;;;;;;6.55;6.05;;;17.90;99.90;;;;;;5095719;28;20208;-93
2022/09/05 00:40:10;;;;;;;7.13;6.53;;;17.80;99.90;;;;;;5095309;28;20231;-92
2022/09/05 00:42:49;;;;;;;6.70;5.47;;;17.80;99.90;;;;;;5094870;28;20223;-92
2022/09/05 00:45:28;;;;;;;6.60;6.00;;;17.80;99.90;;;;;;5095413;28;20261;-93
2022/09/05 00:48:05;;;;;;;7.50;6.20;;;17.80;99.90;;;;;;5094678;28;20231;-93
2022/09/05 00:50:39;;;;;;;8.23;6.30;;;17.80;99.90;;;;;;5094857;28;20298;-94
2022/09/05 00:53:14;;;;;;;5.75;5.30;;;17.80;99.90;;;;;;5094967;28;20311;-94
2022/09/05 00:55:54;;;;;;;6.57;5.97;;;17.80;99.90;;;;;;5094983;28;20235;-93
2022/09/05 00:58:42;;;;;;;8.75;6.88;;;17.80;99.90;;;;;;5094687;28;20212;-92
2022/09/05 01:01:27;;;;;;;6.28;5.80;;;17.80;99.90;;;;;;5094651;28;20232;-94
2022/09/05 01:04:22;;;;;;;10.90;7.15;;;17.80;99.90;;;;;;5094739;28;20200;-93
2022/09/05 01:07:10;;;;;;;6.72;6.22;;;17.80;99.90;;;;;;5094847;28;20237;-94
2022/09/05 01:10:07;;;;;;;8.30;7.50;;;17.80;99.90;;;;;;5094555;28;20223;-93
2022/09/05 01:12:57;;;;;;;8.25;7.00;;;17.80;99.90;;;;;;5094215;28;20288;-93
2022/09/05 01:15:34;;;;;;;8.13;7.43;;;17.80;99.90;;;;;;5093428;28;20201;-93
2022/09/05 01:18:21;;;;;;;7.57;6.88;;;17.70;99.90;;;;;;5094786;28;20204;-93
2022/09/05 01:21:30;;;;;;;6.80;6.30;;;17.70;99.90;;;;;;5094384;28;20231;-95
2022/09/05 01:24:24;;;;;;;8.57;7.28;;;17.70;99.90;;;;;;5094422;28;20222;-95
2022/09/05 01:27:55;;;;;;;7.25;6.60;;;17.60;99.90;;;;;;5086029;28;20295;-92
2022/09/05 01:30:50;;;;;;;7.20;6.60;;;17.70;99.90;;;;;;5089779;28;20208;-94
2022/09/05 01:33:29;;;;;;;7.72;7.10;;;17.60;99.90;;;;;;5094238;28;20255;-93
2022/09/05 01:36:10;;;;;;;8.32;7.13;;;17.60;99.90;;;;;;5094210;28;20235;-93
2022/09/05 01:38:47;;;;;;;7.78;7.18;;;17.60;99.90;;;;;;5093659;28;20261;-93
2022/09/05 01:41:45;;;;;;;7.80;7.10;;;17.50;99.90;;;;;;5093676;28;20220;-93
2022/09/05 01:44:37;;;;;;;8.02;7.30;;;17.50;99.90;;;;;;5094448;28;20280;-93
2022/09/05 01:47:23;;;;;;;7.93;7.30;;;17.50;99.90;;;;;;5094223;28;20204;-91
2022/09/05 01:50:08;;;;;;;7.93;7.22;;;17.40;99.90;;;;;;5094181;28;20223;-92
2022/09/05 01:52:58;;;;;;;8.07;7.20;;;17.40;99.90;;;;;;5093439;28;20235;-92
2022/09/05 01:55:48;;;;;;;7.68;7.05;;;17.40;99.90;;;;;;5093991;28;20204;-91
2022/09/05 01:58:47;;;;;;;7.40;6.72;;;17.40;99.90;;;;;;5093922;28;20295;-91
2022/09/05 02:01:24;;;;;;;7.55;6.95;;;17.40;99.90;;;;;;5093875;28;20276;-92
2022/09/05 02:04:29;;;;;;;8.00;7.28;;;17.30;99.90;;;;;;5093508;28;20220;-91
2022/09/05 02:07:08;;;;;;;9.15;8.27;;;17.30;99.90;;;;;;5093637;28;20204;-93
2022/09/05 02:10:41;;;;;;;7.75;7.13;;;17.20;99.90;;;;;;5092861;28;20261;-93
2022/09/05 02:13:24;;;;;;;7.80;7.15;;;17.20;99.90;;;;;;5084471;28;20244;-92
2022/09/05 02:16:01;;;;;;;9.02;8.18;;;17.20;99.90;;;;;;5097081;28;20200;-91
2022/09/05 02:18:45;;;;;;;8.27;7.60;;;17.20;99.90;;;;;;5094536;28;20210;-91
2022/09/05 02:21:23;;;;;;;9.10;8.27;;;17.20;99.90;;;;;;5099918;28;20232;-91
2022/09/05 02:24:02;;;;;;;8.05;7.43;;;17.20;99.90;;;;;;5101646;28;20224;-91
2022/09/05 02:26:36;;;;;;;7.80;7.10;;;17.10;99.90;;;;;;5101309;28;20207;-91
2022/09/05 02:29:14;;;;;;;8.02;7.28;;;17.10;99.90;;;;;;5098801;28;20239;-94
2022/09/05 02:32:02;;;;;;;7.90;7.25;;;17.10;99.90;;;;;;5096620;28;20224;-92
2022/09/05 02:34:40;;;;;;;8.85;8.05;;;17.10;99.90;;;;;;5093369;28;20304;-91
2022/09/05 02:37:15;;;;;;;9.05;8.27;;;17.10;99.90;;;;;;5093548;28;20246;-91
2022/09/05 02:40:12;;;;;;;6.53;6.03;;;17.10;99.90;;;;;;5093489;28;20227;-91
2022/09/05 02:43:06;;;;;;;6.57;6.07;;;17.00;99.90;;;;;;5092901;28;20201;-91
2022/09/05 02:46:03;;;;;;;8.10;7.30;;;17.00;99.90;;;;;;5092912;28;20200;-91
2022/09/05 02:48:49;;;;;;;7.60;5.93;;;17.00;99.90;;;;;;5092940;28;20208;-91
2022/09/05 02:51:25;;;;;;;8.18;6.75;;;17.00;99.90;;;;;;5094801;28;20223;-92
2022/09/05 02:54:18;;;;;;;6.28;5.78;;;17.00;99.90;;;;;;5095488;28;20220;-92
2022/09/05 02:57:26;;;;;;;8.73;7.90;;;17.00;99.90;;;;;;5094441;28;20196;-91
2022/09/05 03:00:19;;;;;;;8.43;7.57;;;17.00;99.90;;;;;;5093827;28;20210;-91
2022/09/05 03:03:09;;;;;;;8.63;7.43;;;17.00;99.90;;;;;;5093168;28;20293;-91
2022/09/05 03:05:45;;;;;;;11.50;9.20;;;17.00;99.90;;;;;;5092905;28;20208;-92
2022/09/05 03:08:29;;;;;;;9.70;8.80;;;16.90;99.90;;;;;;5093138;28;20300;-92
2022/09/05 03:11:29;;;;;;;8.98;8.07;;;16.90;99.90;;;;;;5092614;28;20311;-92
2022/09/05 03:14:44;;;;;;;8.50;7.82;;;16.90;99.90;;;;;;5092814;28;20216;-93
2022/09/05 03:17:49;;;;;;;11.65;10.57;;;16.90;99.90;;;;;;5092531;28;20311;-93
2022/09/05 03:20:45;;;;;;;9.57;8.77;;;16.90;99.90;;;;;;5092852;28;20204;-91
2022/09/05 03:23:48;;;;;;;10.55;9.48;;;16.80;99.90;;;;;;5092479;28;20235;-91
2022/09/05 03:26:38;;;;;;;10.07;9.27;;;16.80;99.90;;;;;;5061319;28;20268;-91
2022/09/05 03:29:45;;;;;;;13.07;11.50;;;16.70;99.90;;;;;;5092663;28;20205;-92
2022/09/05 03:33:03;;;;;;;10.73;9.63;;;16.60;99.90;;;;;;5092653;28;20220;-91
2022/09/05 03:36:08;;;;;;;10.48;9.48;;;16.70;99.90;;;;;;5092760;28;20212;-90
2022/09/05 03:39:27;;;;;;;10.10;9.30;;;16.70;99.90;;;;;;5078162;28;20283;-91
2022/09/05 03:42:35;;;;;;;10.15;9.15;;;16.60;99.90;;;;;;5096274;28;20224;-92
2022/09/05 03:45:40;;;;;;;11.38;10.27;;;16.60;99.90;;;;;;5096068;28;20200;-91
2022/09/05 03:48:33;;;;;;;12.85;11.50;;;16.60;99.90;;;;;;5096209;28;20208;-92
2022/09/05 03:51:23;;;;;;;10.43;9.52;;;16.50;99.90;;;;;;5096366;28;20259;-91
2022/09/05 03:54:37;;;;;;;10.18;9.23;;;16.50;99.90;;;;;;5098916;28;20223;-91
2022/09/05 03:57:41;;;;;;;11.25;10.15;;;16.50;99.90;;;;;;5098261;28;20200;-91
2022/09/05 04:00:20;;;;;;;11.85;10.70;;;16.40;99.90;;;;;;5098939;28;20272;-92
2022/09/05 04:03:09;;;;;;;11.50;10.50;;;16.40;99.90;;;;;;5097458;28;20209;-91
2022/09/05 04:06:06;;;;;;;9.90;9.10;;;16.40;99.90;;;;;;5096107;28;20303;-92
2022/09/05 04:09:03;;;;;;;11.00;10.10;;;16.40;99.90;;;;;;5095586;28;20208;-92
2022/09/05 04:11:38;;;;;;;11.88;10.55;;;16.40;99.90;;;;;;5095913;28;20236;-91
2022/09/05 04:14:09;;;;;;;10.75;9.85;;;16.40;99.90;;;;;;5095631;28;20220;-89
2022/09/05 04:16:49;;;;;;;10.32;9.43;;;16.40;99.90;;;;;;5095786;28;20291;-91
2022/09/05 04:19:26;;;;;;;11.95;10.90;;;16.40;99.90;;;;;;5095257;28;20212;-91
2022/09/05 04:22:05;;;;;;;11.65;10.63;;;16.40;99.90;;;;;;5095383;28;20311;-91
2022/09/05 04:24:41;;;;;;;14.05;11.68;;;16.50;99.90;;;;;;5095573;28;20197;-93
2022/09/05 04:27:27;;;;;;;12.80;11.68;;;16.50;99.90;;;;;;5095575;28;20266;-92
2022/09/05 04:30:00;;;;;;;14.02;12.63;;;16.50;99.90;;;;;;5095312;28;20209;-91
2022/09/05 04:32:49;;;;;;;14.68;13.38;;;16.60;99.90;;;;;;5095065;28;20244;-91
2022/09/05 04:35:29;;;;;;;14.98;13.68;;;16.50;99.90;;;;;;5095261;28;20228;-91
2022/09/05 04:38:04;;;;;;;15.35;13.85;;;16.50;99.90;;;;;;5094909;28;20267;-92
2022/09/05 04:40:46;;;;;;;14.95;13.55;;;16.50;99.90;;;;;;5094682;28;20232;-92
2022/09/05 04:43:26;;;;;;;14.43;13.13;;;16.60;99.90;;;;;;5094897;28;20312;-92
2022/09/05 04:46:00;;;;;;;13.63;12.43;;;16.60;99.90;;;;;;5094946;28;20208;-92
2022/09/05 04:48:35;;;;;;;14.63;13.23;;;16.60;99.90;;;;;;5094721;28;20200;-92
2022/09/05 04:51:08;;;;;;;14.35;12.85;;;16.70;99.90;;;;;;5094801;28;20247;-91
2022/09/05 04:54:06;;;;;;;13.10;12.00;;;16.60;99.90;;;;;;5095076;28;20207;-92
2022/09/05 04:56:39;;;;;;;14.23;12.80;;;16.70;99.90;;;;;;5095644;28;20238;-92
2022/09/05 04:59:18;;;;;;;14.50;13.18;;;16.70;99.90;;;;;;5095860;28;20219;-92
2022/09/05 05:02:17;;;;;;;13.27;12.07;;;16.70;99.90;;;;;;5094747;28;20234;-93
2022/09/05 05:05:10;;;;;;;14.07;12.93;;;16.70;99.90;;;;;;5094831;28;20203;-92
2022/09/05 05:08:02;;;;;;;15.52;13.68;;;16.70;99.90;;;;;;5094886;28;20204;-92
2022/09/05 05:10:36;;;;;;;12.93;11.75;;;16.80;99.90;;;;;;5094593;28;20211;-91
2022/09/05 05:13:29;;;;;;;12.25;11.15;;;16.80;99.90;;;;;;5094702;28;20226;-91
2022/09/05 05:16:23;;;;;;;13.80;12.55;;;16.90;99.90;;;;;;5094366;28;20279;-91
2022/09/05 05:19:18;;;;;;;13.70;12.50;;;16.90;99.90;;;;;;5093930;28;20205;-91
2022/09/05 05:21:52;;;;;;;12.68;11.52;;;16.90;99.90;;;;;;5094457;28;20224;-91
2022/09/05 05:24:24;;;;;;;13.57;12.43;;;16.90;99.90;;;;;;5094372;28;20228;-91
2022/09/05 05:26:59;;;;;;;12.70;11.57;;;16.90;99.90;;;;;;5094094;28;20204;-92
2022/09/05 05:29:37;;;;;;;12.07;10.98;;;17.00;99.90;;;;;;5094213;28;20224;-93
2022/09/05 05:32:08;;;;;;;12.15;10.98;;;17.00;99.90;;;;;;5094291;28;20302;-91
2022/09/05 05:34:43;;;;;;;12.07;11.07;;;17.00;99.90;;;;;;5094215;28;20222;-91
2022/09/05 05:37:18;;;;;;;12.55;9.80;;;17.10;99.90;;;;;;5094115;28;20247;-91
2022/09/05 05:39:51;;;;;;;11.82;10.82;;;17.10;99.90;;;;;;5093506;28;20223;-92
2022/09/05 05:42:23;;;;;;;12.05;10.95;;;17.20;99.90;;;;;;5094222;28;20289;-91
2022/09/05 05:44:54;;;;;;;11.77;10.68;;;17.20;99.90;;;;;;5093799;28;20200;-91
2022/09/05 05:47:27;;;;;;;12.15;11.00;;;17.20;99.90;;;;;;5094246;28;20382;-92
2022/09/05 05:50:06;;;;;;;12.32;10.95;;;17.30;99.90;;;;;;5093736;28;20204;-92
2022/09/05 05:53:01;;;;;;;13.07;11.85;;;17.30;99.90;;;;;;5093636;28;20236;-91
2022/09/05 05:55:44;;;;;;;13.20;11.88;;;17.30;99.90;;;;;;5093643;28;20228;-91
2022/09/05 05:58:46;;;;;;;16.60;11.43;;;17.40;99.90;;;;;;5093341;28;20212;-92
2022/09/05 06:01:48;;;;;;;12.88;10.70;;;17.40;99.90;;;;;;5093174;28;20284;-90
2022/09/05 06:05:00;;;;;;;11.52;10.45;;;17.50;99.90;;;;;;5093802;28;20212;-91
2022/09/05 06:07:42;;;;;;;10.75;9.70;;;17.50;99.90;;;;;;5093390;28;20208;-91
2022/09/05 06:11:06;;;;;;;11.43;9.60;;;17.60;99.90;;;;;;5093635;28;20208;-91
2022/09/05 06:14:40;;;;;;;10.95;9.95;;;17.60;99.90;;;;;;5093347;28;20208;-92
2022/09/05 06:18:05;;;;;;;9.48;8.77;;;17.70;99.90;;;;;;5093496;28;20200;-92
2022/09/05 06:21:24;;;;;;;10.38;9.38;;;17.70;99.90;;;;;;5088817;28;20239;-93
2022/09/05 06:24:56;;;;;;;11.10;9.98;;;17.80;99.90;;;;;;5092884;28;20268;-91
2022/09/05 06:27:58;;;;;;;12.60;11.40;;;17.80;99.90;;;;;;5073302;28;20222;-91
2022/09/05 06:30:52;;;;;;;12.23;10.52;;;17.80;99.90;;;;;;5093238;28;20204;-92
2022/09/05 06:33:53;;;;;;;9.95;9.15;;;17.90;99.90;;;;;;5092882;28;20204;-91
2022/09/05 06:36:44;;;;;;;10.85;9.95;;;18.00;99.90;;;;;;5092806;28;20293;-91
2022/09/05 06:39:18;;;;;;;10.38;9.48;;;18.00;99.90;;;;;;5094790;28;20230;-91
2022/09/05 06:42:11;;;;;;;12.73;11.27;;;18.10;99.90;;;;;;5102405;28;20248;-90
2022/09/05 06:45:17;;;;;;;10.35;9.43;;;18.10;99.90;;;;;;5099211;28;20206;-91
2022/09/05 06:48:04;;;;;;;12.95;11.60;;;18.20;99.90;;;;;;5098944;28;20211;-92
2022/09/05 06:50:44;;;;;;;10.55;9.60;;;18.30;99.90;;;;;;5093198;28;20258;-92
2022/09/05 06:53:59;;;;;;;11.32;10.38;;;18.40;99.90;;;;;;5092735;28;20204;-93
2022/09/05 06:56:40;;;;;;;11.32;10.18;;;18.50;99.90;;;;;;5090690;28;20256;-92
2022/09/05 06:59:47;;;;;;;13.80;10.10;;;18.60;99.90;;;;;;5092720;28;20212;-91
2022/09/05 07:02:24;;;;;;;11.05;9.88;;;18.60;99.90;;;;;;5065700;28;20224;-92
2022/09/05 07:05:30;;;;;;;9.13;8.30;;;18.70;99.90;;;;;;5092651;28;20236;-91
2022/09/05 07:08:26;;;;;;;9.20;8.38;;;18.80;99.90;;;;;;5093090;28;20291;-92
2022/09/05 07:11:09;;;;;;;8.85;8.05;;;18.90;99.90;;;;;;5092674;28;20228;-91
2022/09/05 07:13:54;;;;;;;9.07;8.27;;;18.90;99.90;;;;;;5096190;28;20200;-91
2022/09/05 07:16:35;;;;;;;14.18;10.15;;;18.90;99.90;;;;;;5096604;28;20254;-91
2022/09/05 07:19:17;;;;;;;10.20;9.30;;;18.90;99.90;;;;;;5096459;28;20234;-90
2022/09/05 07:21:54;;;;;;;17.23;8.98;;;18.90;99.90;;;;;;5096931;28;20256;-91
2022/09/05 07:24:27;;;;;;;9.10;8.30;;;19.00;99.90;;;;;;5096742;28;20258;-90
2022/09/05 07:27:31;;;;;;;11.20;9.68;;;19.00;99.90;;;;;;5096654;28;20200;-92
2022/09/05 07:30:09;;;;;;;9.45;8.52;;;19.10;99.90;;;;;;5096538;28;20227;-91
2022/09/05 07:32:43;;;;;;;10.90;8.80;;;19.20;99.90;;;;;;5099288;28;20259;-89
2022/09/05 07:35:17;;;;;;;8.77;7.97;;;19.30;99.90;;;;;;5095388;28;20227;-89
2022/09/05 07:37:48;;;;;;;8.85;7.85;;;19.40;99.90;;;;;;5097961;28;20204;-87
2022/09/05 07:40:21;;;;;;;8.57;7.80;;;19.50;99.90;;;;;;5095820;28;20220;-82
2022/09/05 07:43:01;;;;;;;9.80;8.40;;;19.60;99.90;;;;;;5095524;28;20220;-82
2022/09/05 07:45:47;;;;;;;8.07;7.43;;;19.60;99.90;;;;;;5096037;28;20197;-84
2022/09/05 07:48:27;;;;;;;7.68;6.97;;;19.70;99.90;;;;;;5095317;28;20215;-81
2022/09/05 07:51:04;;;;;;;8.75;7.80;;;19.80;99.90;;;;;;5095636;28;20216;-80
2022/09/05 07:53:54;;;;;;;15.85;8.30;;;19.90;99.90;;;;;;5093646;28;20209;-80
2022/09/05 07:56:45;;;;;;;8.13;7.43;;;20.00;99.90;;;;;;5095244;28;20213;-80
2022/09/05 07:59:38;;;;;;;8.02;6.75;;;20.20;99.90;;;;;;5095323;28;20197;-79
2022/09/05 08:02:09;;;;;;;9.80;8.85;;;20.40;99.90;;;;;;5095445;28;20220;-82
2022/09/05 08:04:39;;;;;;;8.57;7.47;;;20.70;99.90;;;;;;5095859;28;20283;-80
2022/09/05 08:07:12;;;;;;;9.35;8.65;;;20.90;99.90;;;;;;5094983;28;20231;-78
2022/09/05 08:10:04;;;;;;;9.07;8.30;;;20.90;99.90;;;;;;5095387;28;20230;-82
2022/09/05 08:12:41;;;;;;;9.13;8.25;;;21.10;99.90;;;;;;5092047;28;20232;-80
2022/09/05 08:15:30;;;;;;;9.45;8.55;;;21.40;99.90;;;;;;5094939;28;20207;-87
2022/09/05 08:18:24;;;;;;;9.00;8.20;;;21.70;99.90;;;;;;5094779;28;20205;-82
2022/09/05 08:20:56;;;;;;;9.20;8.25;;;22.10;99.90;;;;;;5094693;28;20330;-82
2022/09/05 08:23:43;;;;;;;7.38;6.85;;;22.30;99.90;;;;;;5094831;28;20283;-82
2022/09/05 08:26:14;;;;;;;7.30;6.63;;;22.70;99.90;;;;;;5095048;28;20201;-88
2022/09/05 08:28:54;;;;;;;7.70;7.05;;;23.20;99.90;;;;;;5094821;28;20210;-83
2022/09/05 08:31:30;;;;;;;6.68;5.93;;;23.50;99.90;;;;;;5094457;28;20212;-84
2022/09/05 08:34:02;;;;;;;9.93;6.30;;;23.90;99.90;;;;;;5095571;28;20207;-85
2022/09/05 08:36:35;;;;;;;6.60;5.70;;;24.40;99.90;;;;;;5094855;28;20243;-83
2022/09/05 08:39:06;;;;;;;6.68;6.07;;;24.90;99.90;;;;;;5094841;28;20278;-81
2022/09/05 08:41:43;;;;;;;9.65;5.75;;;25.30;99.90;;;;;;5094029;28;20221;-81
2022/09/05 08:44:23;;;;;;;5.80;5.30;;;25.80;99.90;;;;;;5094101;28;20219;-81
2022/09/05 08:47:25;;;;;;;7.88;5.47;;;26.50;99.90;;;;;;5094734;28;20189;-82
2022/09/05 08:50:11;;;;;;;6.32;5.55;;;27.10;99.90;;;;;;5094794;28;20264;-82
2022/09/05 08:52:46;;;;;;;15.75;5.35;;;;;;;;;;5094428;28;20315;-81
2022/09/05 08:55:24;;;;;;;5.65;5.13;;;28.00;99.90;;;;;;5094409;28;20259;-82
2022/09/05 08:58:05;;;;;;;5.15;4.75;;;28.20;99.90;;;;;;5094082;28;20277;-82
2022/09/05 09:00:41;;;;;;;4.63;4.22;;;28.60;99.90;;;;;;5094130;28;20251;-81
2022/09/05 09:03:26;;;;;;;4.35;4.05;;;28.60;99.90;;;;;;5094235;28;20208;-82
2022/09/05 09:06:16;;;;;;;4.43;4.03;;;28.60;99.90;;;;;;5074418;28;20289;-82
2022/09/05 09:08:55;;;;;;;4.50;4.10;;;28.30;99.90;;;;;;5073774;28;20211;-82
2022/09/05 09:11:30;;;;;;;5.10;4.60;;;28.10;99.90;;;;;;5078021;28;20276;-82
2022/09/05 09:14:26;;;;;;;5.78;5.28;;;27.30;99.90;;;;;;5094218;28;20208;-79
2022/09/05 09:17:06;;;;;;;4.50;4.10;;;26.70;99.90;;;;;;5094071;28;20224;-84
2022/09/05 09:19:46;;;;;;;8.68;4.35;;;26.60;99.90;;;;;;5094079;28;20294;-80
2022/09/05 09:22:24;;;;;;;5.20;4.70;;;26.70;99.90;;;;;;5090543;28;20221;-78
2022/09/05 09:25:01;;;;;;;7.55;4.97;;;26.80;99.90;;;;;;5085558;28;20196;-79
2022/09/05 09:28:02;;;;;;;7.55;4.88;;;26.80;99.90;;;;;;5093460;28;20270;-78
2022/09/05 09:30:58;;;;;;;5.18;4.68;;;27.00;99.90;;;;;;5093773;28;20196;-79
2022/09/05 09:33:40;;;;;;;4.85;4.43;;;26.90;99.90;;;;;;5094115;28;20210;-78
2022/09/05 09:36:24;;;;;;;5.57;4.55;;;26.70;99.90;;;;;;5092392;28;20204;-79
2022/09/05 09:39:08;;;;;;;4.80;4.40;;;26.70;99.90;;;;;;5093214;28;20195;-79
2022/09/05 09:42:27;;;;;;;3.83;3.55;;;26.70;99.90;;;;;;5093326;28;20216;-79
2022/09/05 09:45:28;;;;;;;3.53;3.20;;;26.70;99.90;;;;;;5093532;28;20246;-78
2022/09/05 09:48:21;;;;;;;3.70;3.38;;;26.60;99.90;;;;;;5080321;28;20197;-79
2022/09/05 09:51:05;;;;;;;10.23;4.07;;;26.70;99.90;;;;;;5091762;28;20275;-78
2022/09/05 09:53:48;;;;;;;4.45;3.90;;;26.90;99.90;;;;;;5083612;28;20280;-78
2022/09/05 09:57:01;;;;;;;4.43;3.38;;;27.30;99.90;;;;;;5087616;28;20193;-78
2022/09/05 09:59:59;;;;;;;4.25;3.42;;;27.90;99.90;;;;;;5083526;28;20218;-79
2022/09/05 10:03:03;;;;;;;3.88;3.55;;;28.70;99.90;;;;;;5074740;28;20220;-80
2022/09/05 10:06:31;;;;;;;4.82;4.03;;;29.10;99.90;;;;;;5081403;28;20188;-87
2022/09/05 10:09:31;;;;;;;4.18;3.80;;;29.50;99.90;;;;;;5063672;28;20203;-90
2022/09/05 10:12:56;;;;;;;3.90;3.55;;;29.70;99.90;;;;;;5087405;28;20220;-91
2022/09/05 10:15:46;;;;;;;3.90;3.60;;;30.20;99.90;;;;;;5084113;28;20308;-91
2022/09/05 10:18:37;;;;;;;4.40;3.47;;;30.40;99.90;;;;;;5072739;28;20233;-91
2022/09/05 10:21:28;;;;;;;6.70;3.38;;;30.40;99.90;;;;;;5086865;28;20269;-90
2022/09/05 10:24:28;;;;;;;3.53;3.22;;;30.30;99.90;;;;;;5081797;28;20192;-90
2022/09/05 10:27:26;;;;;;;3.53;3.22;;;30.30;99.90;;;;;;5084987;28;20242;-90
2022/09/05 10:30:11;;;;;;;3.60;3.30;;;30.40;99.90;;;;;;5091749;28;20212;-81
2022/09/05 10:32:47;;;;;;;4.00;3.70;;;30.80;99.90;;;;;;5092135;28;20231;-89
2022/09/05 10:35:37;;;;;;;3.38;3.08;;;30.70;99.50;;;;;;5092612;28;20204;-89
2022/09/05 10:38:11;;;;;;;3.40;3.15;;;30.80;98.80;;;;;;5092405;28;20224;-88
2022/09/05 10:40:44;;;;;;;3.55;3.28;;;30.80;99.00;;;;;;5092073;28;20227;-88
2022/09/05 10:43:37;;;;;;;3.30;3.10;;;30.40;99.90;;;;;;5092835;28;20204;-87
2022/09/05 10:46:16;;;;;;;3.63;3.33;;;29.70;98.40;;;;;;5092323;28;20284;-87
2022/09/05 10:49:10;;;;;;;5.63;3.33;;;29.70;99.30;;;;;;5092139;28;20200;-87
2022/09/05 10:51:47;;;;;;;2.78;2.58;;;30.10;98.60;;;;;;5092447;28;20311;-86
2022/09/05 10:54:37;;;;;;;3.20;3.00;;;30.50;98.50;;;;;;5092193;28;20212;-85
2022/09/05 10:57:26;;;;;;;5.75;4.00;;;30.20;98.00;;;;;;5092509;28;20307;-85
2022/09/05 11:00:10;;;;;;;3.50;3.28;;;30.20;97.30;;;;;;5092284;28;20231;-87
2022/09/05 11:02:59;;;;;;;4.35;3.72;;;29.90;99.90;;;;;;5092407;28;20227;-84
2022/09/05 11:05:30;;;;;;;3.75;3.45;;;30.00;98.00;;;;;;5091778;28;20204;-84
2022/09/05 11:08:07;;;;;;;3.40;3.10;;;29.70;98.80;;;;;;5092274;28;20206;-84
2022/09/05 11:10:40;;;;;;;3.33;3.03;;;29.20;98.60;;;;;;5092325;28;20232;-84
2022/09/05 11:13:22;;;;;;;3.80;3.45;;;29.00;99.20;;;;;;5092824;28;20205;-84
2022/09/05 11:16:10;;;;;;;3.47;3.17;;;28.60;99.90;;;;;;5092502;28;20275;-84
2022/09/05 11:18:54;;;;;;;3.25;3.05;;;28.30;99.90;;;;;;5092203;28;20220;-84
2022/09/05 11:21:45;;;;;;;6.72;3.28;;;28.10;99.90;;;;;;5091370;28;20231;-75
2022/09/05 11:24:28;;;;;;;3.72;3.42;;;27.70;99.90;;;;;;5089464;28;20197;-84
2022/09/05 11:26:59;;;;;;;4.60;4.00;;;27.40;99.90;;;;;;5087668;28;20218;-83
2022/09/05 11:29:53;;;;;;;3.03;2.83;;;27.30;99.90;;;;;;5077008;28;20197;-84
2022/09/05 11:33:02;;;;;;;3.38;3.17;;;27.20;99.90;;;;;;5092072;28;20292;-84
2022/09/05 11:35:55;;;;;;;3.97;3.67;;;27.10;99.90;;;;;;5091832;28;20218;-75
2022/09/05 11:38:53;;;;;;;4.25;3.47;;;27.00;99.90;;;;;;5091448;28;20212;-75
2022/09/05 11:41:58;;;;;;;4.00;3.70;;;27.00;99.90;;;;;;5085049;28;20277;-75
2022/09/05 11:44:34;;;;;;;4.63;3.85;;;26.90;99.90;;;;;;5079999;28;20215;-79
2022/09/05 11:47:38;;;;;;;3.67;3.40;;;26.70;99.90;;;;;;5071981;28;20201;-87
2022/09/05 11:50:46;;;;;;;3.75;3.53;;;26.80;99.90;;;;;;5087276;28;20207;-81
2022/09/05 11:53:42;;;;;;;4.43;4.03;;;27.20;99.90;;;;;;5090255;28;20230;-83
2022/09/05 11:56:36;;;;;;;3.55;3.30;;;27.60;99.90;;;;;;5091889;28;20228;-82
2022/09/05 11:59:45;;;;;;;4.05;3.70;;;27.80;99.90;;;;;;5091727;28;20307;-81
2022/09/05 12:02:37;;;;;;;4.13;3.80;;;27.90;99.90;;;;;;5092314;28;20216;-81
2022/09/05 12:05:31;;;;;;;4.05;3.75;;;28.10;99.90;;;;;;5095995;28;20212;-81
2022/09/05 12:08:30;;;;;;;3.28;3.08;;;28.00;99.90;;;;;;5089815;28;20351;-81
2022/09/05 12:11:19;;;;;;;3.58;3.28;;;27.90;99.90;;;;;;5095131;28;20236;-81
2022/09/05 12:13:54;;;;;;;3.47;3.20;;;28.00;99.90;;;;;;5095198;28;20210;-81
2022/09/05 12:16:54;;;;;;;4.20;3.80;;;28.50;99.90;;;;;;5095219;28;20212;-82
2022/09/05 12:19:30;;;;;;;3.60;3.25;;;29.00;99.90;;;;;;5095119;28;20224;-81
2022/09/05 12:22:17;;;;;;;4.78;3.83;;;29.30;99.90;;;;;;5095150;28;20232;-81
2022/09/05 12:25:24;;;;;;;3.38;3.08;;;29.40;99.90;;;;;;5095072;28;20236;-80
2022/09/05 12:28:16;;;;;;;3.28;3.08;;;29.60;99.90;;;;;;5094841;28;20193;-80
2022/09/05 12:31:16;;;;;;;14.35;3.95;;;29.20;99.30;;;;;;5095132;28;20240;-80
2022/09/05 12:34:08;;;;;;;3.38;3.17;;;28.80;99.70;;;;;;5088351;28;20188;-82
2022/09/05 12:37:03;;;;;;;4.03;3.65;;;28.40;99.90;;;;;;5086830;28;20192;-82
2022/09/05 12:39:54;;;;;;;4.22;3.40;;;28.10;99.90;;;;;;5074278;28;20247;-80
2022/09/05 12:42:52;;;;;;;3.50;2.90;;;28.00;99.90;;;;;;5075234;28;20231;-81
2022/09/05 12:45:46;;;;;;;3.35;3.05;;;27.90;99.90;;;;;;5074854;28;20209;-81
2022/09/05 12:48:25;;;;;;;3.75;3.45;;;28.10;99.90;;;;;;5085796;28;20204;-81
2022/09/05 12:51:10;;;;;;;3.25;3.05;;;28.30;99.90;;;;;;5074332;28;20236;-81
2022/09/05 12:54:05;;;;;;;3.17;2.42;;;28.20;99.90;;;;;;5074344;28;20209;-80
2022/09/05 12:57:00;;;;;;;3.45;3.15;;;27.90;99.90;;;;;;5074344;28;20208;-81
2022/09/05 12:59:50;;;;;;;3.67;2.88;;;27.80;99.90;;;;;;5073943;28;20299;-81
2022/09/05 13:02:44;;;;;;;3.17;2.90;;;27.40;99.90;;;;;;5074270;28;20229;-81
2022/09/05 13:05:53;;;;;;;3.45;3.20;;;27.30;99.90;;;;;;5074019;28;20207;-80
2022/09/05 13:08:29;;;;;;;3.10;2.90;;;27.10;99.90;;;;;;5074065;28;20220;-81
2022/09/05 13:11:00;;;;;;;2.88;2.58;;;27.10;99.90;;;;;;5073653;28;20231;-81
2022/09/05 13:13:52;;;;;;;3.03;2.83;;;27.10;99.90;;;;;;5073715;28;20200;-81
2022/09/05 13:16:45;;;;;;;3.03;2.83;;;27.10;99.90;;;;;;5074109;28;20201;-81
2022/09/05 13:19:27;;;;;;;3.40;3.10;;;27.10;99.90;;;;;;5073625;28;20224;-81
2022/09/05 13:21:56;;;;;;;2.92;2.72;;;27.20;99.90;;;;;;5074102;28;20229;-80
2022/09/05 13:24:29;;;;;;;3.13;2.83;;;27.40;99.90;;;;;;5073849;28;20292;-80
2022/09/05 13:27:05;;;;;;;5.20;2.80;;;27.60;99.90;;;;;;5077599;28;20200;-81
2022/09/05 13:29:51;;;;;;;3.47;3.17;;;27.70;99.90;;;;;;5094231;28;20254;-81
2022/09/05 13:32:43;;;;;;;2.80;2.60;;;27.70;99.90;;;;;;5093845;28;20220;-80
2022/09/05 13:35:35;;;;;;;3.80;3.45;;;27.80;99.90;;;;;;5093637;28;20212;-80
2022/09/05 13:38:36;;;;;;;3.17;2.75;;;28.00;99.90;;;;;;5093527;28;20234;-81
2022/09/05 13:41:21;;;;;;;3.25;2.95;;;28.20;99.90;;;;;;5093711;28;20316;-80
2022/09/05 13:43:58;;;;;;;3.17;2.88;;;28.40;99.90;;;;;;5093584;28;20211;-80
2022/09/05 13:46:53;;;;;;;3.10;2.90;;;28.50;99.90;;;;;;5093275;28;20208;-80
2022/09/05 13:49:30;;;;;;;2.78;2.65;;;28.70;99.90;;;;;;5093632;28;20207;-80
2022/09/05 13:52:18;;;;;;;3.28;2.95;;;28.70;98.70;;;;;;5087203;28;20228;-81
2022/09/05 13:54:50;;;;;;;2.67;2.45;;;28.80;98.10;;;;;;5084282;28;20280;-81
2022/09/05 13:57:36;;;;;;;2.80;2.60;;;28.60;98.00;;;;;;5083098;28;20209;-81
2022/09/05 14:00:45;;;;;;;2.80;2.60;;;28.60;98.40;;;;;;5083582;28;20216;-80
2022/09/05 14:03:49;;;;;;;3.50;3.15;;;28.50;98.70;;;;;;5081735;28;20293;-81
2022/09/05 14:06:50;;;;;;;16.92;3.38;;;28.40;98.30;;;;;;5054184;28;20195;-81
2022/09/05 14:09:37;;;;;;;2.85;2.55;;;28.30;98.10;;;;;;5079092;28;20247;-81
2022/09/05 14:12:15;;;;;;;3.05;2.85;;;28.20;98.70;;;;;;5083503;28;20267;-81
2022/09/05 14:14:49;;;;;;;2.60;2.40;;;28.20;98.80;;;;;;5083288;28;20280;-81
2022/09/05 14:17:54;;;;;;;2.17;2.08;;;27.90;99.60;;;;;;5081822;28;20195;-81
2022/09/05 14:23:18;;;;;;;2.20;2.08;;;27.80;98.90;;;;;;5081582;28;20201;-81
2022/09/05 14:25:51;;;;;;;2.42;2.05;;;27.70;98.10;;;;;;5084016;28;20287;-82
2022/09/05 14:28:25;;;;;;;2.25;2.15;;;27.80;98.90;;;;;;5079755;28;20260;-82
2022/09/05 14:30:55;;;;;;;2.40;2.25;;;27.80;99.10;;;;;;5090368;28;20307;-82
2022/09/05 14:34:09;;;;;;;2.38;2.17;;;27.80;98.30;;;;;;5088927;28;20204;-83